Glasco, KS

2:57 PM CDT on March 28, 2017 (GMT -0500)
1.5 miles East of Glasco | | Change Station

Elev 1358 ft 39.37 °N, 97.81 °W | Updated 12 seconds ago

Overcast
Overcast
55.9 °F
Feels Like 55.9 °F
N
5.8
Wind Variable Wind from ENE
Gusts 9.8 mph

Today
High -- | Low -- °F
--% Chance of Precip.
Yesterday
High -- | Low -- °F
Precip. -- in
Pressure 29.99 in
Visibility 10.0 miles
Clouds Mostly Cloudy 2900 ft
Dew Point 50 °F
Humidity 79%
Rainfall 0.00 in
Snow Depth Not available.
7:21 AM 7:51 PM
New Moon, 1% visible
METAR KCNK 281955Z AUTO 09014G20KT 10SM BKN029 12/06 A2999 RMK AO2 SLP155 T01220061
Pressure 29.99 in
Visibility 10.0 miles
Clouds Mostly Cloudy 2900 ft
Dew Point 50 °F
Humidity 79%
Rainfall 0.00 in
Snow Depth Not available.
7:21 AM 7:51 PM
New Moon, 1% visible
METAR KCNK 281955Z AUTO 09014G20KT 10SM BKN029 12/06 A2999 RMK AO2 SLP155 T01220061

Get Severe Weather Alerts

Thanks for signing up!

Be on the lookout for a verification email in your inbox.

You'll start receiving the daily forecast at 8 AM.

×

10-Day Weather Forecast

Almanac

Astronomy

Mar. 28, 2017 Rise Set
Actual Time
Civil Twilight
Nautical Twilight
Astronomical Twilight
Moon
Length of Visible Light
Length of Day
Tomorrow will be .
, % of the Moon is Illuminated

Today's Extremes

State Highs State Lows

Community

WunderPhotos

Upload Photos

1,962,540 photos uploaded!

WunderBlog® & News

Nearby

Air Quality

  Air Quality AQ Index Pollutant
Not available.

Snow Depth

Station Depth Elevation

Earthquake Activity

City Distance Mag. Time & Date
Minimum magnitude displayed is 2.5.

Earthquake Activity

City Distance Mag. Time & Date
Minimum magnitude displayed is 2.5.

Coastal Water Temperatures

Place Temperature

Stations

Nearby Weather Stations

Station Location Temp. Windchill Dew Point Humidity Wind Precip. Elev Updated Type
                   

Watches & Warnings

There are currently no watches in effect.